createdAt,value
2023-03-25T00:00:31.538Z,2.90
2023-03-25T00:01:31.619Z,4.30
2023-03-25T00:02:31.699Z,3.20
2023-03-25T00:03:31.541Z,3.40
2023-03-25T00:04:31.535Z,2.60
2023-03-25T00:05:31.501Z,3.20
2023-03-25T00:06:31.511Z,2.60
2023-03-25T00:07:31.530Z,2.00
2023-03-25T00:08:31.443Z,2.80
2023-03-25T00:09:31.427Z,3.10
2023-03-25T00:10:31.442Z,2.20
2023-03-25T00:11:31.386Z,2.70
2023-03-25T00:12:31.599Z,2.20
2023-03-25T00:13:31.392Z,2.30
2023-03-25T00:14:31.418Z,2.20
2023-03-25T00:15:31.359Z,1.50
2023-03-25T00:16:31.395Z,3.50
2023-03-25T00:17:31.362Z,3.80
2023-03-25T00:18:31.330Z,2.90
2023-03-25T00:19:31.301Z,3.30
2023-03-25T00:20:31.282Z,2.10
2023-03-25T00:21:31.270Z,2.90
2023-03-25T00:22:31.241Z,3.90
2023-03-25T00:23:31.256Z,2.50
2023-03-25T00:24:31.280Z,2.50
2023-03-25T00:25:31.229Z,2.10
2023-03-25T00:26:31.277Z,2.60
2023-03-25T00:27:31.232Z,3.80
2023-03-25T00:28:31.236Z,2.40
2023-03-25T00:29:31.187Z,2.40
2023-03-25T00:30:31.184Z,2.90
2023-03-25T00:31:31.147Z,2.50
2023-03-25T00:32:31.171Z,4.20
2023-03-25T00:33:31.103Z,3.20
2023-03-25T00:34:31.139Z,3.90
2023-03-25T00:35:31.069Z,5.40
2023-03-25T00:36:31.082Z,4.30
2023-03-25T00:37:31.054Z,3.50
2023-03-25T00:38:31.082Z,4.20
2023-03-25T00:39:31.061Z,5.30
2023-03-25T00:40:31.053Z,3.90
2023-03-25T00:41:31.002Z,4.20
2023-03-25T00:42:30.996Z,3.20
2023-03-25T00:43:30.962Z,4.90
2023-03-25T00:44:30.937Z,3.90
2023-03-25T00:45:30.967Z,5.10
2023-03-25T00:46:30.960Z,3.80
2023-03-25T00:47:30.992Z,4.80
2023-03-25T00:48:30.906Z,5.20
2023-03-25T00:49:30.879Z,4.80
2023-03-25T00:50:30.956Z,3.90
2023-03-25T00:51:30.878Z,3.40
2023-03-25T00:52:30.831Z,3.30
2023-03-25T00:53:30.873Z,3.20
2023-03-25T00:54:30.849Z,4.40
2023-03-25T00:55:30.817Z,3.60
2023-03-25T00:56:30.811Z,4.20
2023-03-25T00:57:30.809Z,4.70
2023-03-25T00:58:30.747Z,3.30
2023-03-25T00:59:30.736Z,4.00
2023-03-25T01:00:30.744Z,3.80
2023-03-25T01:01:30.827Z,3.20
2023-03-25T01:02:30.791Z,6.00
2023-03-25T01:03:30.836Z,3.30
2023-03-25T01:04:30.680Z,3.50
2023-03-25T01:05:30.652Z,3.90
2023-03-25T01:06:30.655Z,3.80
2023-03-25T01:07:30.651Z,3.40
2023-03-25T01:08:30.657Z,2.70
2023-03-25T01:09:30.594Z,3.60
2023-03-25T01:10:30.691Z,3.10
2023-03-25T01:11:30.596Z,3.30
2023-03-25T01:12:30.556Z,4.00
2023-03-25T01:13:30.595Z,7.20
2023-03-25T01:14:30.528Z,3.80
2023-03-25T01:15:30.590Z,4.40
2023-03-25T01:16:30.528Z,3.40
2023-03-25T01:17:30.505Z,4.80
2023-03-25T01:18:30.479Z,3.00
2023-03-25T01:19:30.482Z,4.60
2023-03-25T01:20:30.495Z,2.70
2023-03-25T01:21:30.472Z,3.60
2023-03-25T01:22:30.438Z,2.80
2023-03-25T01:23:30.405Z,2.10
2023-03-25T01:24:30.409Z,3.50
2023-03-25T01:25:30.371Z,2.50
2023-03-25T01:26:30.396Z,2.30
2023-03-25T01:27:30.353Z,3.60
2023-03-25T01:28:30.346Z,2.60
2023-03-25T01:29:30.312Z,3.50
2023-03-25T01:30:30.291Z,3.30
2023-03-25T01:31:30.619Z,3.80
2023-03-25T01:32:30.325Z,3.90
2023-03-25T01:33:30.265Z,2.50
2023-03-25T01:34:30.276Z,2.30
2023-03-25T01:35:30.273Z,3.50
2023-03-25T01:36:30.270Z,3.00
2023-03-25T01:37:30.283Z,1.60
2023-03-25T01:38:30.249Z,3.80
2023-03-25T01:39:30.193Z,2.20
2023-03-25T01:40:30.165Z,2.50
2023-03-25T01:41:42.237Z,3.70
2023-03-25T01:42:31.157Z,4.40
2023-03-25T01:43:30.138Z,2.30
2023-03-25T01:44:30.167Z,2.60
2023-03-25T01:45:30.130Z,2.60
2023-03-25T01:46:30.136Z,2.10
2023-03-25T01:47:30.134Z,3.90
2023-03-25T01:48:30.076Z,3.10
2023-03-25T01:49:30.387Z,3.10
2023-03-25T01:50:30.045Z,3.40
2023-03-25T01:51:30.030Z,4.60
2023-03-25T01:52:30.042Z,2.90
2023-03-25T01:53:30.056Z,5.30
2023-03-25T01:54:29.982Z,3.10
2023-03-25T01:55:30.005Z,2.90
2023-03-25T01:56:30.085Z,3.50
2023-03-25T01:57:29.955Z,2.90
2023-03-25T01:58:29.958Z,3.30
2023-03-25T01:59:29.994Z,5.40
2023-03-25T02:00:29.978Z,3.50
2023-03-25T02:01:29.924Z,4.50
2023-03-25T02:02:29.925Z,4.30
2023-03-25T02:03:29.939Z,3.30
2023-03-25T02:04:29.878Z,3.50
2023-03-25T02:05:29.831Z,2.50
2023-03-25T02:06:29.850Z,5.30
2023-03-25T02:07:29.808Z,2.60
2023-03-25T02:08:29.819Z,4.30
2023-03-25T02:09:29.769Z,3.20
2023-03-25T02:10:29.794Z,3.50
2023-03-25T02:11:29.911Z,4.10
2023-03-25T02:12:29.810Z,3.00
2023-03-25T02:13:29.728Z,2.90
2023-03-25T02:14:29.736Z,2.60
2023-03-25T02:15:29.690Z,4.40
2023-03-25T02:16:29.744Z,2.60
2023-03-25T02:17:29.736Z,4.50
2023-03-25T02:18:29.671Z,4.00
2023-03-25T02:19:29.751Z,3.60
2023-03-25T02:20:29.665Z,2.50
2023-03-25T02:21:29.637Z,2.70
2023-03-25T02:22:29.622Z,4.40
2023-03-25T02:23:29.624Z,2.30
2023-03-25T02:24:29.563Z,2.50
2023-03-25T02:25:29.620Z,3.30
2023-03-25T02:26:29.553Z,2.30
2023-03-25T02:27:29.535Z,3.00
2023-03-25T02:28:29.525Z,2.80
2023-03-25T02:29:29.567Z,2.20
2023-03-25T02:30:29.507Z,3.30
2023-03-25T02:31:29.542Z,3.10
2023-03-25T02:32:29.490Z,1.80
2023-03-25T02:33:29.434Z,3.40
2023-03-25T02:34:29.457Z,2.20
2023-03-25T02:35:29.419Z,2.60
2023-03-25T02:36:29.413Z,3.30
2023-03-25T02:37:29.399Z,4.20
2023-03-25T02:38:29.498Z,4.40
2023-03-25T02:39:29.361Z,2.20
2023-03-25T02:40:29.356Z,3.40
2023-03-25T02:41:29.400Z,3.50
2023-03-25T02:42:29.358Z,4.70
2023-03-25T02:43:29.360Z,3.60
2023-03-25T02:44:29.291Z,4.40
2023-03-25T02:45:29.313Z,4.30
2023-03-25T02:46:29.376Z,3.20
2023-03-25T02:47:29.282Z,3.40
2023-03-25T02:48:29.256Z,1.90
2023-03-25T02:49:29.310Z,3.30
2023-03-25T02:50:29.267Z,2.90
2023-03-25T02:51:29.200Z,3.40
2023-03-25T02:52:29.289Z,4.50
2023-03-25T02:53:29.203Z,2.40
2023-03-25T02:54:29.166Z,3.40
2023-03-25T02:55:29.218Z,2.30
2023-03-25T02:56:29.175Z,3.50
2023-03-25T02:57:29.118Z,1.90
2023-03-25T02:58:29.183Z,1.90
2023-03-25T02:59:29.139Z,2.30
2023-03-25T03:00:29.104Z,2.30
2023-03-25T03:01:29.122Z,2.30
2023-03-25T03:02:29.111Z,2.10
2023-03-25T03:03:29.095Z,2.40
2023-03-25T03:04:29.017Z,2.00
2023-03-25T03:05:29.085Z,4.80
2023-03-25T03:06:29.006Z,4.10
2023-03-25T03:07:28.965Z,3.00
2023-03-25T03:08:29.008Z,3.60
2023-03-25T03:09:29.068Z,3.20
2023-03-25T03:10:29.028Z,2.20
2023-03-25T03:11:28.974Z,1.80
2023-03-25T03:12:28.912Z,3.10
2023-03-25T03:13:28.945Z,3.40
2023-03-25T03:14:28.916Z,1.60
2023-03-25T03:15:28.868Z,2.60
2023-03-25T03:16:28.926Z,2.90
2023-03-25T03:17:28.916Z,3.00
2023-03-25T03:18:28.931Z,2.40
2023-03-25T03:19:28.868Z,3.30
2023-03-25T03:20:28.901Z,2.30
2023-03-25T03:21:28.834Z,1.50
2023-03-25T03:22:28.805Z,2.30
2023-03-25T03:23:28.778Z,3.60
2023-03-25T03:24:28.753Z,3.30
2023-03-25T03:25:28.756Z,2.80
2023-03-25T03:26:28.729Z,4.30
2023-03-25T03:27:28.771Z,1.80
2023-03-25T03:28:28.753Z,3.30
2023-03-25T03:29:28.804Z,2.30
2023-03-25T03:30:28.694Z,3.10
2023-03-25T03:31:50.824Z,2.70
2023-03-25T03:32:29.834Z,2.30
2023-03-25T03:33:28.632Z,2.50
2023-03-25T03:34:28.634Z,2.30
2023-03-25T03:35:28.662Z,2.60
2023-03-25T03:36:28.619Z,2.90
2023-03-25T03:37:28.584Z,3.80
2023-03-25T03:38:28.587Z,2.60
2023-03-25T03:39:28.667Z,3.50
2023-03-25T03:40:28.523Z,2.50
2023-03-25T03:41:28.604Z,3.00
2023-03-25T03:42:28.555Z,3.20
2023-03-25T03:43:28.512Z,2.90
2023-03-25T03:44:28.473Z,4.10
2023-03-25T03:45:28.504Z,3.10
2023-03-25T03:46:28.523Z,2.30
2023-03-25T03:47:28.537Z,3.20
2023-03-25T03:48:28.480Z,2.70
2023-03-25T03:49:28.394Z,3.60
2023-03-25T03:50:28.402Z,2.10
2023-03-25T03:51:28.375Z,2.40
2023-03-25T03:52:28.353Z,3.80
2023-03-25T03:53:28.358Z,2.70
2023-03-25T03:54:28.374Z,4.00
2023-03-25T03:55:28.311Z,3.20
2023-03-25T03:56:28.373Z,3.10
2023-03-25T03:57:28.308Z,2.70
2023-03-25T03:58:28.304Z,2.80
2023-03-25T03:59:28.368Z,3.10
2023-03-25T04:00:28.300Z,3.70
2023-03-25T04:01:28.238Z,3.00
2023-03-25T04:02:28.359Z,3.20
2023-03-25T04:03:28.489Z,3.10
2023-03-25T04:04:28.222Z,3.00
2023-03-25T04:05:28.263Z,2.70
2023-03-25T04:06:28.185Z,2.90
2023-03-25T04:07:28.163Z,2.70
2023-03-25T04:08:28.160Z,2.00
2023-03-25T04:09:28.162Z,3.20
2023-03-25T04:10:28.148Z,3.00
2023-03-25T04:11:28.114Z,3.90
2023-03-25T04:12:28.123Z,2.90
2023-03-25T04:13:28.095Z,6.70
2023-03-25T04:14:28.049Z,4.20
2023-03-25T04:15:36.744Z,3.10
2023-03-25T04:16:28.068Z,3.70
2023-03-25T04:17:28.115Z,2.80
2023-03-25T04:18:28.007Z,3.10
2023-03-25T04:19:28.003Z,3.30
2023-03-25T04:20:28.022Z,3.50
2023-03-25T04:21:28.005Z,4.40
2023-03-25T04:22:28.003Z,3.30
2023-03-25T04:23:27.954Z,4.80
2023-03-25T04:24:27.958Z,4.40
2023-03-25T04:25:27.932Z,5.90
2023-03-25T04:26:27.924Z,3.10
2023-03-25T04:27:27.928Z,3.90
2023-03-25T04:28:27.885Z,3.40
2023-03-25T04:29:27.867Z,4.40
2023-03-25T04:30:27.851Z,3.40
2023-03-25T04:31:27.925Z,2.70
2023-03-25T04:32:28.052Z,3.30
2023-03-25T04:33:27.851Z,5.00
2023-03-25T04:34:27.801Z,2.50
2023-03-25T04:35:27.799Z,4.50
2023-03-25T04:36:27.791Z,4.30
2023-03-25T04:37:27.756Z,3.40
2023-03-25T04:38:27.753Z,4.30
2023-03-25T04:39:27.728Z,3.60
2023-03-25T04:40:27.756Z,5.30
2023-03-25T04:41:27.710Z,4.20
2023-03-25T04:42:27.686Z,3.50
2023-03-25T04:43:27.680Z,4.80
2023-03-25T04:44:27.671Z,3.50
2023-03-25T04:45:27.718Z,4.40
2023-03-25T04:46:27.625Z,5.00
2023-03-25T04:47:27.743Z,3.10
2023-03-25T04:48:27.598Z,4.50
2023-03-25T04:49:27.592Z,2.90
2023-03-25T04:50:27.593Z,3.90
2023-03-25T04:51:27.593Z,6.50
2023-03-25T04:52:27.614Z,7.90
2023-03-25T04:53:27.566Z,4.00
2023-03-25T04:54:27.570Z,4.00
2023-03-25T04:55:27.497Z,3.70
2023-03-25T04:56:27.592Z,3.90
2023-03-25T04:57:27.485Z,4.10
2023-03-25T04:58:27.468Z,4.30
2023-03-25T04:59:27.465Z,3.10
2023-03-25T05:00:27.425Z,4.70
2023-03-25T05:01:27.535Z,3.40
2023-03-25T05:02:27.435Z,6.50
2023-03-25T05:03:27.383Z,5.20
2023-03-25T05:04:27.414Z,2.80
2023-03-25T05:05:27.425Z,4.90
2023-03-25T05:06:27.358Z,6.00
2023-03-25T05:07:27.352Z,3.40
2023-03-25T05:08:27.356Z,3.20
2023-03-25T05:09:27.306Z,5.10
2023-03-25T05:10:27.305Z,3.70
2023-03-25T05:11:27.285Z,5.10
2023-03-25T05:12:27.295Z,6.10
2023-03-25T05:13:27.954Z,4.70
2023-03-25T05:14:27.235Z,4.90
2023-03-25T05:15:27.234Z,3.30
2023-03-25T05:16:27.332Z,6.20
2023-03-25T05:17:27.202Z,3.20
2023-03-25T05:18:27.463Z,4.20
2023-03-25T05:19:27.182Z,4.90
2023-03-25T05:20:27.205Z,4.50
2023-03-25T05:21:27.159Z,3.80
2023-03-25T05:22:27.131Z,4.10
2023-03-25T05:23:27.159Z,2.20
2023-03-25T05:24:27.111Z,3.80
2023-03-25T05:25:27.134Z,6.80
2023-03-25T05:26:27.080Z,3.60
2023-03-25T05:27:27.055Z,3.40
2023-03-25T05:28:27.048Z,2.70
2023-03-25T05:29:27.023Z,5.70
2023-03-25T05:30:27.043Z,2.60
2023-03-25T05:31:27.034Z,3.40
2023-03-25T05:32:27.147Z,3.60
2023-03-25T05:33:26.982Z,4.70
2023-03-25T05:34:26.969Z,4.60
2023-03-25T05:35:27.060Z,3.30
2023-03-25T05:36:26.954Z,4.40
2023-03-25T05:37:26.925Z,2.60
2023-03-25T05:38:26.896Z,4.70
2023-03-25T05:39:26.907Z,4.20
2023-03-25T05:40:26.885Z,3.60
2023-03-25T05:41:26.878Z,4.50
2023-03-25T05:42:26.867Z,4.50
2023-03-25T05:43:26.883Z,4.60
2023-03-25T05:44:26.829Z,3.70
2023-03-25T05:45:26.878Z,3.10
2023-03-25T05:46:26.904Z,4.40
2023-03-25T05:47:26.814Z,4.00
2023-03-25T05:48:26.804Z,2.80
2023-03-25T05:49:26.751Z,4.90
2023-03-25T05:50:26.776Z,2.90
2023-03-25T05:51:26.717Z,3.70
2023-03-25T05:52:26.732Z,5.60
2023-03-25T05:53:26.726Z,2.90
2023-03-25T05:54:26.722Z,5.40
2023-03-25T05:55:26.664Z,4.80
2023-03-25T05:56:26.667Z,5.40
2023-03-25T05:57:26.788Z,3.90
2023-03-25T05:58:26.690Z,3.70
2023-03-25T05:59:26.659Z,4.90
2023-03-25T06:00:26.643Z,3.90
2023-03-25T06:01:33.403Z,4.40
2023-03-25T06:02:27.602Z,3.80
2023-03-25T06:03:26.739Z,3.20
2023-03-25T06:04:26.676Z,4.50
2023-03-25T06:05:26.586Z,3.50
2023-03-25T06:06:26.546Z,3.40
2023-03-25T06:07:26.524Z,2.60
2023-03-25T06:08:26.596Z,3.00
2023-03-25T06:09:26.490Z,4.90
2023-03-25T06:10:26.506Z,4.40
2023-03-25T06:11:26.503Z,4.80
2023-03-25T06:12:26.928Z,3.50
2023-03-25T06:13:26.496Z,6.20
2023-03-25T06:14:26.579Z,3.70
2023-03-25T06:15:26.455Z,3.60
2023-03-25T06:16:26.562Z,6.00
2023-03-25T06:17:26.553Z,5.50
2023-03-25T06:18:26.425Z,7.00
2023-03-25T06:19:26.492Z,3.50
2023-03-25T06:20:26.369Z,4.10
2023-03-25T06:21:26.382Z,5.50
2023-03-25T06:22:26.382Z,5.60
2023-03-25T06:23:26.447Z,5.10
2023-03-25T06:24:26.320Z,3.80
2023-03-25T06:25:26.331Z,4.00
2023-03-25T06:26:26.393Z,5.20
2023-03-25T06:27:26.310Z,6.70
2023-03-25T06:28:26.274Z,4.30
2023-03-25T06:29:26.243Z,3.40
2023-03-25T06:30:26.466Z,5.50
2023-03-25T06:31:26.265Z,5.20
2023-03-25T06:32:26.283Z,3.60
2023-03-25T06:33:42.619Z,4.60
2023-03-25T06:34:27.163Z,5.50
2023-03-25T06:35:26.188Z,4.10
2023-03-25T06:36:26.198Z,3.90
2023-03-25T06:37:26.142Z,4.90
2023-03-25T06:38:26.102Z,4.40
2023-03-25T06:39:26.118Z,3.50
2023-03-25T06:40:26.082Z,5.00
2023-03-25T06:41:26.125Z,2.60
2023-03-25T06:42:26.062Z,4.40
2023-03-25T06:43:26.123Z,4.80
2023-03-25T06:44:26.061Z,4.00
2023-03-25T06:45:26.042Z,4.30
2023-03-25T06:46:26.067Z,4.00
2023-03-25T06:47:26.136Z,4.60
2023-03-25T06:48:26.010Z,6.00
2023-03-25T06:49:26.023Z,6.00
2023-03-25T06:50:25.965Z,6.20
2023-03-25T06:51:25.972Z,5.50
2023-03-25T06:52:26.089Z,4.40
2023-03-25T06:53:25.913Z,6.10
2023-03-25T06:54:25.922Z,4.10
2023-03-25T06:55:25.892Z,4.90
2023-03-25T06:56:25.862Z,6.60
2023-03-25T06:57:25.965Z,5.40
2023-03-25T06:58:25.815Z,4.90
2023-03-25T06:59:25.827Z,5.60
2023-03-25T07:00:25.826Z,3.90
2023-03-25T07:01:25.814Z,5.00
2023-03-25T07:02:25.913Z,5.40
2023-03-25T07:03:25.847Z,6.00
2023-03-25T07:04:25.806Z,6.10
2023-03-25T07:05:25.811Z,5.20
2023-03-25T07:06:25.729Z,4.70
2023-03-25T07:07:25.693Z,5.30
2023-03-25T07:08:25.744Z,3.80
2023-03-25T07:09:25.706Z,4.70
2023-03-25T07:10:25.656Z,6.70
2023-03-25T07:11:25.743Z,4.90
2023-03-25T07:12:25.664Z,4.30
2023-03-25T07:13:25.668Z,5.10
2023-03-25T07:14:25.674Z,4.80
2023-03-25T07:15:25.699Z,4.20
2023-03-25T07:16:25.745Z,5.40
2023-03-25T07:17:25.606Z,6.00
2023-03-25T07:18:25.587Z,4.80
2023-03-25T07:19:25.668Z,5.00
2023-03-25T07:20:25.608Z,5.10
2023-03-25T07:21:25.971Z,7.00
2023-03-25T07:22:25.696Z,5.00
2023-03-25T07:23:25.496Z,6.20
2023-03-25T07:24:25.508Z,4.30
2023-03-25T07:25:25.480Z,5.60
2023-03-25T07:26:25.471Z,4.70
2023-03-25T07:27:25.517Z,7.70
2023-03-25T07:28:25.452Z,6.30
2023-03-25T07:29:25.396Z,5.40
2023-03-25T07:30:25.451Z,5.90
2023-03-25T07:31:25.418Z,6.30
2023-03-25T07:32:25.463Z,8.10
2023-03-25T07:33:25.393Z,5.10
2023-03-25T07:34:25.412Z,6.40
2023-03-25T07:35:25.373Z,4.90
2023-03-25T07:36:25.318Z,4.20
2023-03-25T07:37:25.285Z,5.50
2023-03-25T07:38:25.283Z,4.70
2023-03-25T07:39:25.307Z,4.90
2023-03-25T07:40:25.393Z,6.90
2023-03-25T07:41:25.277Z,5.50
2023-03-25T07:42:25.214Z,5.00
2023-03-25T07:43:25.240Z,9.50
2023-03-25T07:44:25.408Z,7.20
2023-03-25T07:45:25.362Z,5.80
2023-03-25T07:46:25.365Z,7.20
2023-03-25T07:47:25.202Z,7.80
2023-03-25T07:48:25.131Z,5.70
2023-03-25T07:49:25.126Z,6.00
2023-03-25T07:50:25.687Z,6.90
2023-03-25T07:51:25.156Z,5.50
2023-03-25T07:52:25.115Z,4.80
2023-03-25T07:53:25.061Z,7.00
2023-03-25T07:54:25.156Z,7.60
2023-03-25T07:55:25.061Z,5.40
2023-03-25T07:56:25.142Z,4.30
2023-03-25T07:57:25.011Z,7.10
2023-03-25T07:58:24.992Z,5.40
2023-03-25T07:59:25.424Z,7.20
2023-03-25T08:00:25.043Z,6.70
2023-03-25T08:01:25.117Z,5.90
2023-03-25T08:02:25.145Z,6.80
2023-03-25T08:03:25.002Z,6.20
2023-03-25T08:04:25.010Z,5.60
2023-03-25T08:05:25.005Z,6.60
2023-03-25T08:06:24.992Z,6.20
2023-03-25T08:07:25.393Z,5.20
2023-03-25T08:08:24.911Z,6.60
2023-03-25T08:09:24.882Z,6.20
2023-03-25T08:10:24.903Z,6.00
2023-03-25T08:11:24.911Z,8.00
2023-03-25T08:12:24.815Z,7.20
2023-03-25T08:13:24.976Z,4.80
2023-03-25T08:14:24.765Z,4.00
2023-03-25T08:15:24.992Z,5.60
2023-03-25T08:16:24.758Z,6.60
2023-03-25T08:17:26.247Z,5.10
2023-03-25T08:18:24.738Z,5.80
2023-03-25T08:19:24.716Z,5.60
2023-03-25T08:20:25.591Z,6.20
2023-03-25T08:21:24.685Z,5.60
2023-03-25T08:22:24.762Z,6.10
2023-03-25T08:23:24.678Z,7.50
2023-03-25T08:24:24.676Z,4.70
2023-03-25T08:25:24.605Z,6.00
2023-03-25T08:26:24.668Z,5.40
2023-03-25T08:27:24.728Z,6.40
2023-03-25T08:28:24.737Z,5.10
2023-03-25T08:29:24.695Z,6.90
2023-03-25T08:30:24.599Z,5.60
2023-03-25T08:31:24.628Z,5.60
2023-03-25T08:32:24.585Z,5.70
2023-03-25T08:33:24.718Z,5.10
2023-03-25T08:34:28.533Z,8.10
2023-03-25T08:35:24.562Z,6.40
2023-03-25T08:36:24.579Z,6.40
2023-03-25T08:37:24.716Z,5.90
2023-03-25T08:38:24.477Z,5.30
2023-03-25T08:39:24.494Z,5.40
2023-03-25T08:40:24.568Z,5.60
2023-03-25T08:41:24.376Z,8.10
2023-03-25T08:42:24.440Z,4.90
2023-03-25T08:43:24.404Z,5.90
2023-03-25T08:44:24.350Z,5.80
2023-03-25T08:45:24.372Z,8.90
2023-03-25T08:46:24.477Z,6.20
2023-03-25T08:47:24.356Z,6.00
2023-03-25T08:48:24.240Z,5.20
2023-03-25T08:49:24.412Z,7.50
2023-03-25T08:50:24.420Z,7.10
2023-03-25T08:51:24.438Z,6.60
2023-03-25T08:52:24.198Z,6.80
2023-03-25T08:53:24.295Z,6.40
2023-03-25T08:54:24.204Z,6.40
2023-03-25T08:55:24.256Z,6.50
2023-03-25T08:56:24.167Z,6.10
2023-03-25T08:57:24.156Z,4.40
2023-03-25T08:58:24.155Z,7.00
2023-03-25T08:59:24.113Z,6.50
2023-03-25T09:00:24.371Z,5.30
2023-03-25T09:01:24.223Z,7.60
2023-03-25T09:02:24.124Z,7.40
2023-03-25T09:03:24.130Z,6.30
2023-03-25T09:04:24.030Z,6.50
2023-03-25T09:05:24.201Z,8.50
2023-03-25T09:06:24.086Z,9.30
2023-03-25T09:07:24.031Z,6.40
2023-03-25T09:08:24.061Z,7.80
2023-03-25T09:09:23.987Z,9.00
2023-03-25T09:10:23.971Z,8.70
2023-03-25T09:11:34.112Z,7.30
2023-03-25T09:12:24.975Z,6.10
2023-03-25T09:13:24.036Z,8.20
2023-03-25T09:14:23.893Z,8.10
2023-03-25T09:15:23.899Z,6.00
2023-03-25T09:16:23.902Z,6.80
2023-03-25T09:17:23.882Z,7.00
2023-03-25T09:18:23.851Z,4.90
2023-03-25T09:19:23.880Z,7.10
2023-03-25T09:20:23.927Z,7.90
2023-03-25T09:21:23.824Z,8.60
2023-03-25T09:22:23.813Z,7.70
2023-03-25T09:23:23.763Z,6.20
2023-03-25T09:24:23.865Z,7.30
2023-03-25T09:25:23.769Z,11.50
2023-03-25T09:26:23.838Z,6.70
2023-03-25T09:27:23.917Z,7.40
2023-03-25T09:28:23.704Z,8.40
2023-03-25T09:29:23.774Z,6.30
2023-03-25T09:30:23.733Z,10.50
2023-03-25T09:31:23.932Z,7.90
2023-03-25T09:32:23.772Z,6.60
2023-03-25T09:33:23.685Z,7.70
2023-03-25T09:34:23.770Z,9.80
2023-03-25T09:35:23.629Z,8.60
2023-03-25T09:36:23.574Z,11.40
2023-03-25T09:37:23.600Z,9.10
2023-03-25T09:38:23.685Z,9.00
2023-03-25T09:39:23.554Z,8.70
2023-03-25T09:40:23.708Z,8.10
2023-03-25T09:41:23.546Z,5.40
2023-03-25T09:42:23.557Z,8.10
2023-03-25T09:43:23.618Z,6.70
2023-03-25T09:44:23.799Z,7.80
2023-03-25T09:45:23.847Z,9.60
2023-03-25T09:46:23.522Z,9.60
2023-03-25T09:47:23.547Z,6.20
2023-03-25T09:48:23.432Z,8.30
2023-03-25T09:49:23.497Z,8.20
2023-03-25T09:50:23.589Z,7.50
2023-03-25T09:51:23.483Z,7.60
2023-03-25T09:52:23.385Z,8.20
2023-03-25T09:53:23.337Z,7.50
2023-03-25T09:54:23.392Z,8.70
2023-03-25T09:55:23.409Z,6.50
2023-03-25T09:56:23.442Z,6.70
2023-03-25T09:57:23.323Z,5.90
2023-03-25T09:58:23.494Z,7.40
2023-03-25T09:59:23.290Z,8.30
2023-03-25T10:00:23.322Z,7.10
2023-03-25T10:01:28.298Z,10.10
2023-03-25T10:02:24.426Z,7.30
2023-03-25T10:03:23.453Z,7.80
2023-03-25T10:04:23.190Z,8.50
2023-03-25T10:05:23.263Z,7.30
2023-03-25T10:06:23.174Z,7.80
2023-03-25T10:07:23.183Z,8.50
2023-03-25T10:08:23.132Z,7.90
2023-03-25T10:09:23.200Z,8.90
2023-03-25T10:10:23.258Z,8.60
2023-03-25T10:11:23.301Z,12.20
2023-03-25T10:12:23.154Z,9.40
2023-03-25T10:13:23.195Z,9.80
2023-03-25T10:14:23.083Z,8.00
2023-03-25T10:15:23.035Z,9.90
2023-03-25T10:16:23.091Z,9.00
2023-03-25T10:17:22.981Z,10.60
2023-03-25T10:18:23.019Z,8.00
2023-03-25T10:19:23.110Z,8.70
2023-03-25T10:20:23.054Z,7.50
2023-03-25T10:21:22.971Z,8.50
2023-03-25T10:22:22.955Z,9.10
2023-03-25T10:23:22.946Z,7.80
2023-03-25T10:24:22.915Z,8.60
2023-03-25T10:25:22.887Z,10.30
2023-03-25T10:26:22.878Z,9.00
2023-03-25T10:27:22.859Z,10.00
2023-03-25T10:28:22.957Z,11.20
2023-03-25T10:29:22.855Z,7.60
2023-03-25T10:30:22.899Z,7.80
2023-03-25T10:31:22.864Z,10.00
2023-03-25T10:32:22.784Z,9.90
2023-03-25T10:33:22.793Z,10.00
2023-03-25T10:34:22.740Z,10.20
2023-03-25T10:35:22.792Z,8.70
2023-03-25T10:36:22.768Z,7.50
2023-03-25T10:37:22.700Z,8.20
2023-03-25T10:38:22.709Z,9.60
2023-03-25T10:39:22.681Z,9.60
2023-03-25T10:40:22.675Z,8.60
2023-03-25T10:41:22.678Z,9.80
2023-03-25T10:42:22.734Z,9.90
2023-03-25T10:43:22.632Z,8.90
2023-03-25T10:44:22.685Z,11.90
2023-03-25T10:45:22.678Z,11.30
2023-03-25T10:46:22.656Z,8.20
2023-03-25T10:47:22.624Z,8.30
2023-03-25T10:48:22.558Z,8.10
2023-03-25T10:49:22.776Z,8.00
2023-03-25T10:50:22.515Z,6.40
2023-03-25T10:51:22.540Z,7.20
2023-03-25T10:52:22.529Z,7.20
2023-03-25T10:53:22.491Z,8.80
2023-03-25T10:54:22.555Z,7.10
2023-03-25T10:55:22.494Z,9.10
2023-03-25T10:56:22.470Z,5.50
2023-03-25T10:57:22.575Z,5.20
2023-03-25T10:58:22.434Z,6.20
2023-03-25T10:59:22.446Z,6.70
2023-03-25T11:00:22.418Z,5.40
2023-03-25T11:01:22.379Z,5.40
2023-03-25T11:02:22.449Z,4.70
2023-03-25T11:03:22.487Z,6.30
2023-03-25T11:04:22.366Z,5.30
2023-03-25T11:05:22.356Z,4.40
2023-03-25T11:06:22.370Z,7.00
2023-03-25T11:07:22.287Z,4.70
2023-03-25T11:08:25.061Z,6.80
2023-03-25T11:09:22.329Z,5.10
2023-03-25T11:10:22.292Z,6.30
2023-03-25T11:11:22.220Z,5.40
2023-03-25T11:12:33.277Z,7.30
2023-03-25T11:13:23.219Z,6.20
2023-03-25T11:14:22.315Z,5.00
2023-03-25T11:15:22.220Z,6.10
2023-03-25T11:16:22.181Z,6.10
2023-03-25T11:17:22.228Z,4.00
2023-03-25T11:18:22.179Z,4.30
2023-03-25T11:19:22.190Z,4.00
2023-03-25T11:20:22.216Z,3.30
2023-03-25T11:21:22.157Z,7.00
2023-03-25T11:22:22.095Z,3.80
2023-03-25T11:23:22.075Z,5.20
2023-03-25T11:24:22.094Z,4.50
2023-03-25T11:25:22.144Z,4.60
2023-03-25T11:26:22.146Z,4.30
2023-03-25T11:27:22.044Z,5.90
2023-03-25T11:28:21.996Z,4.60
2023-03-25T11:29:22.265Z,4.50
2023-03-25T11:30:21.999Z,4.40
2023-03-25T11:31:22.018Z,3.70
2023-03-25T11:32:21.980Z,4.90
2023-03-25T11:33:22.242Z,5.40
2023-03-25T11:34:21.996Z,6.90
2023-03-25T11:35:22.046Z,5.70
2023-03-25T11:36:21.901Z,4.20
2023-03-25T11:37:21.921Z,5.40
2023-03-25T11:38:21.910Z,5.00
2023-03-25T11:39:21.877Z,5.10
2023-03-25T11:40:21.986Z,4.60
2023-03-25T11:41:21.822Z,4.90
2023-03-25T11:42:21.793Z,6.80
2023-03-25T11:43:21.806Z,6.20
2023-03-25T11:44:21.803Z,5.50
2023-03-25T11:45:21.882Z,4.40
2023-03-25T11:46:21.768Z,4.20
2023-03-25T11:47:21.929Z,4.70
2023-03-25T11:48:22.421Z,3.30
2023-03-25T11:49:21.898Z,5.50
2023-03-25T11:50:21.901Z,4.80
2023-03-25T11:51:21.791Z,3.30
2023-03-25T11:52:21.854Z,5.80
2023-03-25T11:53:21.689Z,3.70
2023-03-25T11:54:21.681Z,4.70
2023-03-25T11:55:21.799Z,6.20
2023-03-25T11:56:21.756Z,5.70
2023-03-25T11:57:21.624Z,4.60
2023-03-25T11:58:21.722Z,6.10
2023-03-25T11:59:21.575Z,6.00
2023-03-25T12:00:21.807Z,7.30
2023-03-25T12:01:21.662Z,5.60
2023-03-25T12:02:21.580Z,5.60
2023-03-25T12:03:21.687Z,5.80
2023-03-25T12:04:21.587Z,6.50
2023-03-25T12:05:21.509Z,4.50
2023-03-25T12:06:21.543Z,3.90
2023-03-25T12:07:21.526Z,6.80
2023-03-25T12:08:21.471Z,6.00
2023-03-25T12:09:21.773Z,5.60
2023-03-25T12:10:21.503Z,3.30
2023-03-25T12:11:21.480Z,4.80
2023-03-25T12:12:21.419Z,4.60
2023-03-25T12:13:21.457Z,6.00
2023-03-25T12:14:21.372Z,5.10
2023-03-25T12:15:21.358Z,5.90
2023-03-25T12:16:21.396Z,4.10
2023-03-25T12:17:21.387Z,4.20
2023-03-25T12:18:21.758Z,4.60
2023-03-25T12:19:21.395Z,3.50
2023-03-25T12:20:21.623Z,3.80
2023-03-25T12:21:21.348Z,2.20
2023-03-25T12:22:21.547Z,3.80
2023-03-25T12:23:21.267Z,3.70
2023-03-25T12:24:21.263Z,4.80
2023-03-25T12:25:21.257Z,3.10
2023-03-25T12:26:21.411Z,4.60
2023-03-25T12:27:21.309Z,4.30
2023-03-25T12:28:21.356Z,3.50
2023-03-25T12:29:21.230Z,2.60
2023-03-25T12:30:21.221Z,5.00
2023-03-25T12:31:21.173Z,4.00
2023-03-25T12:32:21.158Z,4.10
2023-03-25T12:33:21.129Z,5.20
2023-03-25T12:34:21.375Z,4.60
2023-03-25T12:35:21.250Z,3.80
2023-03-25T12:36:21.295Z,4.90
2023-03-25T12:37:21.127Z,4.50
2023-03-25T12:38:21.139Z,6.60
2023-03-25T12:39:29.326Z,3.80
2023-03-25T12:40:22.086Z,3.70
2023-03-25T12:41:21.101Z,3.40
2023-03-25T12:42:21.032Z,2.40
2023-03-25T12:43:21.086Z,3.00
2023-03-25T12:44:21.023Z,4.90
2023-03-25T12:45:22.633Z,3.30
2023-03-25T12:46:21.035Z,3.80
2023-03-25T12:47:21.015Z,4.20
2023-03-25T12:48:20.948Z,4.00
2023-03-25T12:49:20.951Z,4.60
2023-03-25T12:50:22.528Z,3.20
2023-03-25T12:51:20.948Z,4.90
2023-03-25T12:52:20.888Z,4.30
2023-03-25T12:53:20.924Z,4.30
2023-03-25T12:54:20.844Z,3.70
2023-03-25T12:55:20.857Z,4.00
2023-03-25T12:56:20.839Z,3.80
2023-03-25T12:57:20.825Z,4.80
2023-03-25T12:58:20.966Z,3.40
2023-03-25T12:59:20.801Z,3.00
2023-03-25T13:00:21.269Z,4.00
2023-03-25T13:01:20.926Z,3.00
2023-03-25T13:02:20.824Z,6.10
2023-03-25T13:03:20.835Z,3.40
2023-03-25T13:04:20.732Z,4.50
2023-03-25T13:05:20.717Z,5.50
2023-03-25T13:06:20.701Z,4.40
2023-03-25T13:07:20.697Z,4.10
2023-03-25T13:08:20.765Z,4.90
2023-03-25T13:09:20.711Z,3.90
2023-03-25T13:10:20.631Z,6.70
2023-03-25T13:11:20.714Z,5.90
2023-03-25T13:12:20.909Z,4.10
2023-03-25T13:13:20.729Z,5.40
2023-03-25T13:14:20.622Z,3.60
2023-03-25T13:15:26.915Z,3.30
2023-03-25T13:16:21.905Z,3.30
2023-03-25T13:17:20.515Z,4.10
2023-03-25T13:18:20.547Z,4.70